Time;durP1;ratioP1;P1;durP2;ratioP2;P2;SDS_P1;SDS_P2;PMS_P1;PMS_P2;Temp;Humidity;BMP_temperature;BMP_pressure;BME280_temperature;BME280_humidity;BME280_pressure;Samples;Min_cycle;Max_cycle;Signal;HPM_P1;HPM_P2
2021/07/24 00:01:11;;;;;;;11.35;6.68;;;15.10;99.90;;;;;;6257417;22;20012;-83
2021/07/24 00:03:39;;;;;;;9.45;7.15;;;15.00;99.90;;;;;;6278742;22;20408;-83
2021/07/24 00:06:08;;;;;;;13.05;7.47;;;15.00;99.90;;;;;;6221712;22;20019;-83
2021/07/24 00:08:36;;;;;;;11.48;6.80;;;15.00;99.90;;;;;;6248021;22;20027;-83
2021/07/24 00:11:08;;;;;;;9.15;6.95;;;15.00;99.90;;;;;;6280027;22;20016;-82
2021/07/24 00:13:38;;;;;;;11.02;9.93;;;15.00;99.90;;;;;;6257663;22;20026;-83
2021/07/24 00:16:06;;;;;;;16.02;9.43;;;15.10;99.90;;;;;;6219852;22;20053;-83
2021/07/24 00:18:34;;;;;;;9.02;6.43;;;15.20;99.90;;;;;;6255148;22;20331;-83
2021/07/24 00:21:03;;;;;;;8.35;6.03;;;15.20;99.90;;;;;;6257617;22;20015;-82
2021/07/24 00:23:31;;;;;;;11.90;7.85;;;15.10;99.90;;;;;;6246328;22;20031;-83
2021/07/24 00:25:58;;;;;;;26.48;7.95;;;15.00;99.90;;;;;;6257900;22;20015;-83
2021/07/24 00:28:26;;;;;;;11.15;6.78;;;14.90;99.90;;;;;;6275134;22;20047;-83
2021/07/24 00:30:54;;;;;;;11.10;7.30;;;14.70;99.90;;;;;;6253595;22;20304;-82
2021/07/24 00:33:28;;;;;;;12.52;7.80;;;14.70;99.90;;;;;;6257782;22;20008;-83
2021/07/24 00:35:56;;;;;;;11.88;7.95;;;14.60;99.90;;;;;;6277188;22;20023;-82
2021/07/24 00:38:27;;;;;;;14.35;9.05;;;14.60;99.90;;;;;;6256791;22;20431;-83
2021/07/24 00:40:56;;;;;;;;;;;14.70;99.90;;;;;;6221392;22;20019;-82
2021/07/24 00:43:28;;;;;;;11.63;6.97;;;15.10;99.90;;;;;;6279081;22;19930;-82
2021/07/24 00:45:58;;;;;;;22.42;7.65;;;15.50;99.90;;;;;;6245465;22;20016;-82
2021/07/24 00:48:28;;;;;;;13.15;9.05;;;15.70;99.90;;;;;;6245873;22;20024;-83
2021/07/24 00:51:07;;;;;;;11.32;7.10;;;15.50;99.90;;;;;;6280476;22;20023;-83
2021/07/24 00:53:35;;;;;;;11.75;7.22;;;15.30;99.90;;;;;;6284753;22;20026;-81
2021/07/24 00:56:04;;;;;;;11.23;7.70;;;15.40;99.90;;;;;;6275499;22;20019;-81
2021/07/24 00:58:37;;;;;;;10.05;6.53;;;15.70;99.90;;;;;;6274422;22;20027;-82
2021/07/24 01:01:05;;;;;;;13.30;7.43;;;15.90;99.90;;;;;;6256452;22;20051;-83
2021/07/24 01:03:35;;;;;;;11.38;6.07;;;15.80;99.90;;;;;;6226324;22;20024;-82
2021/07/24 01:06:04;;;;;;;7.97;6.43;;;15.70;99.90;;;;;;6220829;22;20439;-82
2021/07/24 01:08:35;;;;;;;11.85;7.88;;;15.60;99.90;;;;;;6219782;22;20024;-82
2021/07/24 01:11:06;;;;;;;10.27;6.53;;;15.50;99.90;;;;;;6219617;22;20019;-83
2021/07/24 01:13:37;;;;;;;10.60;7.85;;;15.30;99.90;;;;;;6256939;22;20019;-82
2021/07/24 01:16:06;;;;;;;;;;;15.00;99.90;;;;;;6248391;22;20031;-82
2021/07/24 01:18:36;;;;;;;18.83;9.18;;;14.90;99.90;;;;;;6255585;22;20619;-82
2021/07/24 01:21:09;;;;;;;13.67;9.47;;;14.70;99.90;;;;;;6283898;22;20016;-82
2021/07/24 01:23:43;;;;;;;16.08;7.68;;;14.90;99.90;;;;;;6277473;22;20574;-81
2021/07/24 01:26:12;;;;;;;14.23;8.65;;;15.30;99.90;;;;;;6221102;22;20011;-83
2021/07/24 01:28:40;;;;;;;7.72;5.57;;;15.60;99.90;;;;;;6195910;22;20023;-83
2021/07/24 01:31:09;;;;;;;10.43;8.23;;;15.70;99.90;;;;;;6278871;22;20031;-82
2021/07/24 01:33:41;;;;;;;10.05;6.90;;;15.30;99.90;;;;;;6256817;22;20016;-82
2021/07/24 01:36:10;;;;;;;13.68;8.07;;;15.00;99.90;;;;;;6249035;22;20031;-82
2021/07/24 01:38:42;;;;;;;9.23;6.47;;;14.80;99.90;;;;;;6220501;22;20027;-82
2021/07/24 01:41:14;;;;;;;13.50;9.00;;;14.60;99.90;;;;;;6257315;22;20347;-82
2021/07/24 01:43:44;;;;;;;12.00;8.02;;;14.60;99.90;;;;;;6220191;22;20038;-82
2021/07/24 01:46:13;;;;;;;10.80;8.30;;;14.60;99.90;;;;;;6195145;22;20020;-82
2021/07/24 01:54:51;;;;;;;15.20;8.45;;;14.50;99.90;;;;;;6281840;22;20019;-82
2021/07/24 01:57:21;;;;;;;11.40;7.57;;;14.50;99.90;;;;;;6278945;22;20088;-82
2021/07/24 02:00:11;;;;;;;11.00;7.68;;;14.40;99.90;;;;;;6219426;22;20027;-82
2021/07/24 02:03:22;;;;;;;11.68;7.57;;;14.50;99.90;;;;;;6203865;22;20023;-82
2021/07/24 02:06:17;;;;;;;11.27;6.97;;;14.40;99.90;;;;;;6261497;22;20026;-82
2021/07/24 02:09:00;;;;;;;11.07;8.57;;;14.40;99.90;;;;;;6172737;22;20031;-82
2021/07/24 02:11:28;;;;;;;9.35;7.70;;;14.30;99.90;;;;;;6219246;22;20470;-80
2021/07/24 02:13:57;;;;;;;9.23;6.35;;;14.10;99.90;;;;;;6195966;22;20019;-82
2021/07/24 02:16:26;;;;;;;8.80;7.88;;;14.10;99.90;;;;;;6219283;22;20020;-82
2021/07/24 02:18:56;;;;;;;13.90;7.72;;;14.10;99.90;;;;;;6253003;22;20339;-82
2021/07/24 02:21:37;;;;;;;13.63;8.68;;;14.10;99.90;;;;;;6255919;22;20477;-82
2021/07/24 02:24:06;;;;;;;15.00;8.90;;;14.10;99.90;;;;;;6248576;22;20019;-82
2021/07/24 02:26:34;;;;;;;11.55;7.80;;;14.00;99.90;;;;;;6254236;22;20479;-82
2021/07/24 02:29:02;;;;;;;10.18;7.55;;;14.00;99.90;;;;;;6256868;22;20012;-82
2021/07/24 02:31:30;;;;;;;11.95;8.00;;;14.00;99.90;;;;;;6218869;22;20028;-82
2021/07/24 02:34:01;;;;;;;10.77;7.70;;;14.00;99.90;;;;;;6256535;22;20011;-82
2021/07/24 02:36:29;;;;;;;12.52;9.40;;;14.00;99.90;;;;;;6224044;22;20355;-82
2021/07/24 02:38:57;;;;;;;11.23;7.35;;;14.00;99.90;;;;;;6230278;22;20028;-82
2021/07/24 02:41:26;;;;;;;12.43;8.93;;;14.00;99.90;;;;;;6233520;22;20024;-88
2021/07/24 02:43:55;;;;;;;13.05;8.00;;;14.00;99.90;;;;;;6221573;22;20051;-82
2021/07/24 02:46:22;;;;;;;12.68;7.93;;;13.90;99.90;;;;;;6231536;22;20019;-82
2021/07/24 02:48:53;;;;;;;13.88;9.10;;;13.80;99.90;;;;;;6223061;22;20067;-82
2021/07/24 02:51:27;;;;;;;10.55;8.45;;;13.80;99.90;;;;;;6279855;22;20031;-82
2021/07/24 02:53:56;;;;;;;14.88;10.05;;;13.80;99.90;;;;;;6285883;22;20012;-82
2021/07/24 02:56:23;;;;;;;12.07;8.82;;;13.70;99.90;;;;;;6275809;22;20027;-82
2021/07/24 02:58:51;;;;;;;15.10;9.57;;;13.80;99.90;;;;;;6282530;22;20023;-82
2021/07/24 03:01:19;;;;;;;20.60;9.98;;;13.80;99.90;;;;;;6221912;22;20016;-82
2021/07/24 03:03:47;;;;;;;14.00;8.80;;;13.80;99.90;;;;;;6251460;22;20016;-82
2021/07/24 03:06:15;;;;;;;10.98;8.23;;;13.80;99.90;;;;;;6222777;22;20016;-82
2021/07/24 03:08:43;;;;;;;12.20;9.10;;;13.70;99.90;;;;;;6275012;22;20024;-82
2021/07/24 03:11:11;;;;;;;13.93;9.30;;;13.70;99.90;;;;;;6280791;22;20027;-82
2021/07/24 03:13:38;;;;;;;11.18;9.07;;;13.60;99.90;;;;;;6246896;22;20020;-82
2021/07/24 03:16:07;;;;;;;11.18;9.23;;;13.60;99.90;;;;;;6276343;22;20028;-82
2021/07/24 03:18:35;;;;;;;11.95;8.68;;;13.60;99.90;;;;;;6244739;22;20024;-82
2021/07/24 03:21:03;;;;;;;17.80;9.02;;;13.50;99.90;;;;;;6285036;22;20015;-82
2021/07/24 03:23:30;;;;;;;15.07;9.15;;;13.50;99.90;;;;;;6246894;22;20459;-82
2021/07/24 03:25:58;;;;;;;13.93;10.23;;;13.60;99.90;;;;;;6246324;22;20327;-81
2021/07/24 03:28:26;;;;;;;13.38;9.23;;;13.50;99.90;;;;;;6275775;22;20028;-82
2021/07/24 03:30:53;;;;;;;15.75;9.35;;;13.50;99.90;;;;;;6280811;22;20023;-82
2021/07/24 03:33:21;;;;;;;14.77;9.23;;;13.40;99.90;;;;;;6258383;22;20019;-81
2021/07/24 03:35:48;;;;;;;20.05;9.40;;;13.40;99.90;;;;;;6221933;22;20354;-83
2021/07/24 03:38:16;;;;;;;11.32;8.43;;;13.40;99.90;;;;;;6246738;22;20023;-78
2021/07/24 03:40:44;;;;;;;11.63;8.82;;;13.50;99.90;;;;;;6284266;22;20022;-82
2021/07/24 03:43:12;;;;;;;16.08;9.05;;;13.50;99.90;;;;;;6253552;22;20028;-83
2021/07/24 03:45:39;;;;;;;15.98;10.60;;;13.50;99.90;;;;;;6257245;22;20557;-83
2021/07/24 03:48:07;;;;;;;10.57;8.00;;;13.50;99.90;;;;;;6249547;22;20342;-82
2021/07/24 03:50:35;;;;;;;13.35;8.20;;;13.60;99.90;;;;;;6221150;22;20622;-83
2021/07/24 03:53:03;;;;;;;14.65;9.32;;;13.60;99.90;;;;;;6257848;22;20026;-83
2021/07/24 03:55:33;;;;;;;13.73;9.18;;;13.60;99.90;;;;;;6279170;22;20019;-83
2021/07/24 03:58:02;;;;;;;16.98;9.70;;;13.60;99.90;;;;;;6250904;22;20015;-83
2021/07/24 04:00:45;;;;;;;11.07;7.68;;;13.60;99.90;;;;;;6274010;22;20019;-82
2021/07/24 04:03:13;;;;;;;11.40;9.18;;;13.50;99.90;;;;;;6280067;22;20030;-83
2021/07/24 04:05:43;;;;;;;13.20;7.63;;;13.50;99.90;;;;;;6284932;22;20016;-83
2021/07/24 04:08:12;;;;;;;16.48;9.20;;;13.50;99.90;;;;;;6276205;22;20020;-83
2021/07/24 04:10:40;;;;;;;15.02;9.63;;;13.60;99.90;;;;;;6282694;22;20443;-82
2021/07/24 04:13:08;;;;;;;13.90;9.73;;;13.60;99.90;;;;;;6258102;22;20007;-83
2021/07/24 04:15:37;;;;;;;12.75;9.02;;;13.70;99.90;;;;;;6277609;22;20030;-82
2021/07/24 04:18:07;;;;;;;13.93;9.23;;;13.80;99.90;;;;;;6257773;22;20427;-83
2021/07/24 04:20:37;;;;;;;25.60;12.50;;;13.80;99.90;;;;;;6220337;22;20026;-83
2021/07/24 04:23:05;;;;;;;14.25;9.57;;;13.90;99.90;;;;;;6253913;22;20331;-83
2021/07/24 04:25:34;;;;;;;13.30;9.35;;;14.00;99.90;;;;;;6284792;22;20026;-83
2021/07/24 04:28:02;;;;;;;12.75;10.05;;;13.90;99.90;;;;;;6276982;22;20063;-83
2021/07/24 04:30:32;;;;;;;15.98;8.27;;;13.90;99.90;;;;;;6281807;22;20038;-83
2021/07/24 04:33:00;;;;;;;16.95;11.68;;;13.90;99.90;;;;;;6257555;22;20411;-83
2021/07/24 04:35:28;;;;;;;13.32;9.73;;;14.00;99.90;;;;;;6279233;22;20647;-83
2021/07/24 04:37:55;;;;;;;13.07;8.57;;;14.10;99.90;;;;;;6284696;22;20458;-83
2021/07/24 04:40:23;;;;;;;13.98;9.40;;;14.10;99.90;;;;;;6220463;22;20344;-82
2021/07/24 04:42:51;;;;;;;18.25;9.48;;;14.20;99.90;;;;;;6229209;22;20027;-83
2021/07/24 04:45:19;;;;;;;12.95;9.07;;;14.30;99.90;;;;;;6283695;22;20022;-83
2021/07/24 04:47:47;;;;;;;15.43;10.15;;;14.60;99.90;;;;;;6277569;22;20027;-83
2021/07/24 04:50:14;;;;;;;16.65;11.23;;;14.90;99.90;;;;;;6284355;22;20015;-83
2021/07/24 04:52:42;;;;;;;14.50;10.25;;;14.80;99.90;;;;;;6273235;22;20024;-83
2021/07/24 04:55:11;;;;;;;14.82;9.52;;;14.80;99.90;;;;;;6245359;22;20023;-82
2021/07/24 04:57:39;;;;;;;15.27;10.55;;;14.90;99.90;;;;;;6220806;22;20024;-88
2021/07/24 05:00:08;;;;;;;15.60;9.93;;;15.10;99.90;;;;;;6221395;22;20473;-87
2021/07/24 05:02:36;;;;;;;15.25;10.48;;;15.20;99.90;;;;;;6229635;22;20019;-83
2021/07/24 05:05:05;;;;;;;20.02;11.63;;;15.40;99.90;;;;;;6257771;22;20647;-83
2021/07/24 05:07:33;;;;;;;17.48;9.27;;;15.50;99.90;;;;;;6251514;22;20024;-83
2021/07/24 05:10:07;;;;;;;14.60;8.77;;;15.60;99.90;;;;;;6257384;22;20640;-82
2021/07/24 05:12:36;;;;;;;13.95;9.65;;;15.80;99.90;;;;;;6273822;22;20020;-82
2021/07/24 05:15:05;;;;;;;17.10;11.00;;;16.00;99.90;;;;;;6280012;22;20015;-83
2021/07/24 05:17:33;;;;;;;14.30;10.38;;;16.20;99.90;;;;;;6284381;22;20012;-83
2021/07/24 05:20:00;;;;;;;12.43;9.43;;;16.30;99.90;;;;;;6244352;22;20035;-83
2021/07/24 05:22:28;;;;;;;17.25;8.80;;;16.40;99.90;;;;;;6220265;22;20447;-83
2021/07/24 05:24:56;;;;;;;10.55;8.10;;;16.60;99.90;;;;;;6256855;22;20018;-83
2021/07/24 05:27:24;;;;;;;21.23;14.15;;;16.70;99.90;;;;;;6220913;22;20012;-83
2021/07/24 05:29:51;;;;;;;14.20;9.45;;;16.80;99.90;;;;;;6220417;22;20025;-82
2021/07/24 05:32:19;;;;;;;13.43;10.48;;;16.90;99.90;;;;;;6247725;22;20023;-83
2021/07/24 05:34:47;;;;;;;16.63;9.48;;;17.00;99.90;;;;;;6254099;22;20451;-83
2021/07/24 05:37:14;;;;;;;12.90;9.57;;;17.20;99.90;;;;;;6256965;22;20015;-84
2021/07/24 05:39:42;;;;;;;18.17;8.80;;;17.30;99.90;;;;;;6245650;22;20023;-83
2021/07/24 05:42:11;;;;;;;15.68;10.60;;;17.40;99.90;;;;;;6256971;22;20008;-84
2021/07/24 05:44:40;;;;;;;13.30;9.77;;;17.50;99.90;;;;;;6232427;22;20024;-84
2021/07/24 05:47:08;;;;;;;15.82;12.02;;;17.60;99.90;;;;;;6244458;22;20034;-84
2021/07/24 05:49:37;;;;;;;15.52;9.70;;;17.70;99.90;;;;;;6231748;22;20012;-84
2021/07/24 05:52:08;;;;;;;15.23;9.00;;;17.80;99.90;;;;;;6262601;22;20027;-83
2021/07/24 05:54:37;;;;;;;13.50;9.80;;;18.00;99.90;;;;;;6281830;22;20755;-84
2021/07/24 05:57:05;;;;;;;16.42;9.52;;;18.00;99.90;;;;;;6270944;22;20028;-84
2021/07/24 05:59:34;;;;;;;15.05;9.48;;;18.10;99.90;;;;;;6247403;22;20024;-84
2021/07/24 06:02:05;;;;;;;13.85;9.25;;;18.20;99.90;;;;;;6252611;23;20023;-85
2021/07/24 06:04:33;;;;;;;14.20;8.48;;;18.30;99.90;;;;;;6243115;23;20344;-84
2021/07/24 06:07:01;;;;;;;17.20;10.88;;;18.40;99.90;;;;;;6249504;23;20471;-83
2021/07/24 06:09:29;;;;;;;14.40;8.90;;;18.40;99.90;;;;;;6252897;23;20027;-82
2021/07/24 06:11:57;;;;;;;14.32;8.88;;;18.40;99.90;;;;;;6245001;23;20028;-84
2021/07/24 06:14:25;;;;;;;14.90;9.05;;;18.40;99.90;;;;;;6246628;22;20016;-84
2021/07/24 06:16:54;;;;;;;19.45;9.23;;;18.40;99.90;;;;;;6251995;23;20016;-83
2021/07/24 06:19:21;;;;;;;17.52;10.30;;;18.60;99.90;;;;;;6242564;23;20023;-84
2021/07/24 06:21:49;;;;;;;15.05;12.60;;;18.60;99.90;;;;;;6253019;23;20017;-85
2021/07/24 06:24:17;;;;;;;18.10;10.07;;;18.70;99.90;;;;;;6243914;23;20398;-84
2021/07/24 06:26:45;;;;;;;13.43;9.65;;;18.90;99.90;;;;;;6223449;23;20023;-85
2021/07/24 06:29:13;;;;;;;15.15;9.80;;;19.00;99.90;;;;;;6248557;23;20016;-85
2021/07/24 06:31:41;;;;;;;14.07;8.93;;;19.10;99.90;;;;;;6244949;23;20042;-84
2021/07/24 06:34:09;;;;;;;14.77;9.73;;;19.20;99.90;;;;;;6253004;23;20055;-78
2021/07/24 06:36:39;;;;;;;15.13;8.93;;;19.30;99.90;;;;;;6242523;23;20028;-79
2021/07/24 06:39:07;;;;;;;19.17;10.27;;;19.30;99.90;;;;;;6249024;22;20020;-79
2021/07/24 06:41:38;;;;;;;20.13;10.27;;;19.50;99.90;;;;;;6252628;23;20435;-82
2021/07/24 06:44:07;;;;;;;12.95;7.10;;;19.70;99.90;;;;;;6244080;23;20024;-78
2021/07/24 06:46:35;;;;;;;20.48;9.50;;;19.80;99.90;;;;;;6249930;23;20012;-78
2021/07/24 06:49:03;;;;;;;15.40;9.10;;;19.90;99.90;;;;;;6253009;23;20011;-78
2021/07/24 06:51:30;;;;;;;13.60;9.38;;;20.10;99.90;;;;;;6247219;23;20024;-76
2021/07/24 06:53:58;;;;;;;14.23;10.57;;;20.10;99.90;;;;;;6252906;23;20020;-75
2021/07/24 06:56:26;;;;;;;13.82;9.65;;;20.10;99.90;;;;;;6243541;22;20032;-75
2021/07/24 06:58:54;;;;;;;12.73;9.15;;;20.00;99.90;;;;;;6280598;22;20467;-78
2021/07/24 07:01:21;;;;;;;12.60;8.48;;;19.90;99.90;;;;;;6244893;22;20024;-84
2021/07/24 07:03:58;;;;;;;14.48;9.00;;;19.80;99.90;;;;;;6275371;22;20030;-82
2021/07/24 07:06:26;;;;;;;13.85;8.38;;;19.80;99.90;;;;;;6281815;22;20328;-81
2021/07/24 07:08:54;;;;;;;17.30;9.15;;;19.90;99.90;;;;;;6282894;22;20015;-83
2021/07/24 07:11:24;;;;;;;11.43;8.98;;;20.10;99.90;;;;;;6277581;22;20375;-81
2021/07/24 07:13:51;;;;;;;16.47;9.43;;;20.20;99.90;;;;;;6283419;22;20538;-81
2021/07/24 07:16:32;;;;;;;15.63;9.25;;;20.40;99.90;;;;;;6275332;22;20251;-88
2021/07/24 07:19:04;;;;;;;14.23;10.02;;;20.60;99.90;;;;;;6280030;22;20028;-81
2021/07/24 07:21:32;;;;;;;21.35;12.52;;;20.80;99.90;;;;;;6248873;22;20066;-82
2021/07/24 07:24:00;;;;;;;14.93;10.73;;;20.90;99.90;;;;;;6279058;22;20450;-83
2021/07/24 07:26:32;;;;;;;15.38;9.93;;;20.90;99.90;;;;;;6257200;22;20023;-83
2021/07/24 07:29:03;;;;;;;15.60;10.55;;;21.00;99.90;;;;;;6285771;22;20312;-81
2021/07/24 07:31:35;;;;;;;15.52;9.80;;;21.00;99.90;;;;;;6245211;22;20027;-87
2021/07/24 07:34:04;;;;;;;15.43;10.43;;;20.90;99.90;;;;;;6285117;22;20034;-82
2021/07/24 07:36:32;;;;;;;13.95;9.43;;;20.90;99.90;;;;;;6274410;22;20032;-78
2021/07/24 07:39:00;;;;;;;14.52;8.77;;;20.90;99.90;;;;;;6281694;22;20020;-77
2021/07/24 07:41:29;;;;;;;18.20;9.68;;;20.80;99.90;;;;;;6257326;22;20331;-78
2021/07/24 07:43:57;;;;;;;15.98;9.15;;;20.70;99.90;;;;;;6249956;22;20015;-83
2021/07/24 07:46:25;;;;;;;12.60;10.75;;;20.90;99.90;;;;;;6254866;22;20016;-85
2021/07/24 07:48:53;;;;;;;13.45;9.02;;;21.00;99.90;;;;;;6285206;22;20291;-84
2021/07/24 07:51:21;;;;;;;14.60;9.45;;;21.50;99.90;;;;;;6279936;22;20022;-85
2021/07/24 07:53:48;;;;;;;13.10;9.93;;;22.00;99.90;;;;;;6285612;22;20030;-83
2021/07/24 07:56:16;;;;;;;21.08;9.70;;;22.40;99.90;;;;;;6275692;22;20443;-83
2021/07/24 07:58:44;;;;;;;11.70;9.77;;;22.60;99.90;;;;;;6243299;23;20027;-76
2021/07/24 08:01:16;;;;;;;17.55;8.32;;;22.30;99.90;;;;;;6252881;23;20023;-76
2021/07/24 08:03:48;;;;;;;13.23;9.77;;;22.10;99.90;;;;;;6214818;23;20341;-76
2021/07/24 08:06:16;;;;;;;14.50;9.90;;;22.00;99.90;;;;;;6253499;23;20034;-76
2021/07/24 08:08:44;;;;;;;13.43;9.32;;;22.10;99.90;;;;;;6215919;23;20016;-76
2021/07/24 08:11:12;;;;;;;13.18;8.52;;;22.10;99.90;;;;;;6249476;23;20012;-76
2021/07/24 08:13:40;;;;;;;12.55;9.00;;;21.90;99.90;;;;;;6253505;23;20012;-76
2021/07/24 08:16:15;;;;;;;16.38;8.70;;;22.00;99.90;;;;;;6244431;22;20762;-79
2021/07/24 08:18:43;;;;;;;11.98;7.80;;;22.30;99.90;;;;;;6251377;23;20439;-76
2021/07/24 08:21:11;;;;;;;8.60;7.60;;;22.40;99.90;;;;;;6253743;23;20016;-77
2021/07/24 08:23:39;;;;;;;11.50;8.10;;;22.60;99.90;;;;;;6216674;23;20067;-76
2021/07/24 08:26:06;;;;;;;21.75;9.48;;;22.70;99.90;;;;;;6191723;23;20016;-78
2021/07/24 08:28:34;;;;;;;13.80;8.82;;;22.70;99.90;;;;;;6245936;23;20032;-78
2021/07/24 08:31:03;;;;;;;11.65;8.63;;;22.60;99.90;;;;;;6222302;23;20023;-80
2021/07/24 08:33:31;;;;;;;12.00;9.35;;;22.50;99.90;;;;;;6202316;23;20019;-78
2021/07/24 08:35:59;;;;;;;13.90;9.70;;;22.50;99.90;;;;;;6247540;23;20051;-87
2021/07/24 08:38:27;;;;;;;27.55;10.75;;;22.60;99.90;;;;;;6195991;22;20345;-86
2021/07/24 08:40:55;;;;;;;13.95;9.43;;;22.70;99.90;;;;;;6170403;23;20020;-93
2021/07/24 08:43:23;;;;;;;19.85;10.73;;;22.90;99.90;;;;;;6192232;23;20027;-78
2021/07/24 08:45:51;;;;;;;11.50;8.02;;;23.10;99.90;;;;;;6255865;23;20012;-79
2021/07/24 08:48:19;;;;;;;14.35;10.23;;;23.00;99.90;;;;;;6244364;23;20040;-79
2021/07/24 08:50:49;;;;;;;13.25;9.18;;;22.90;99.90;;;;;;6250583;23;20027;-78
2021/07/24 08:53:23;;;;;;;13.27;10.63;;;22.80;99.90;;;;;;6215976;23;20339;-81
2021/07/24 08:56:12;;;;;;;15.23;8.68;;;22.60;99.90;;;;;;6246535;22;20254;-85
2021/07/24 08:58:44;;;;;;;13.02;8.35;;;22.40;99.90;;;;;;6246108;22;20022;-83
2021/07/24 09:01:19;;;;;;;14.43;9.95;;;22.40;99.90;;;;;;6283424;22;20342;-83
2021/07/24 09:03:47;;;;;;;13.93;9.82;;;22.30;99.90;;;;;;6250412;22;20023;-82
2021/07/24 09:06:22;;;;;;;14.63;10.35;;;22.30;99.90;;;;;;6246718;22;20022;-83
2021/07/24 09:08:52;;;;;;;14.80;8.65;;;22.20;99.90;;;;;;6246334;22;20031;-82
2021/07/24 09:11:20;;;;;;;14.57;9.13;;;22.10;99.90;;;;;;6251910;22;20031;-82
2021/07/24 09:13:49;;;;;;;14.18;9.27;;;22.10;99.90;;;;;;6284362;22;20011;-83
2021/07/24 09:16:17;;;;;;;15.15;11.23;;;22.00;99.90;;;;;;6220368;22;20024;-82
2021/07/24 09:18:47;;;;;;;13.30;9.70;;;21.90;99.90;;;;;;6281905;22;20350;-82
2021/07/24 09:21:16;;;;;;;12.05;7.70;;;21.90;99.90;;;;;;6220787;22;20711;-83
2021/07/24 09:23:47;;;;;;;11.07;7.85;;;21.80;99.90;;;;;;6245703;22;20028;-82
2021/07/24 09:26:33;;;;;;;14.50;8.57;;;21.80;99.90;;;;;;6283851;22;20334;-83
2021/07/24 09:29:12;;;;;;;15.05;10.25;;;21.80;99.90;;;;;;6257491;22;20024;-82
2021/07/24 09:31:41;;;;;;;15.07;8.95;;;21.80;99.90;;;;;;6276607;22;20035;-83
2021/07/24 09:34:10;;;;;;;19.25;8.25;;;21.80;99.90;;;;;;6284319;22;20042;-83
2021/07/24 09:36:39;;;;;;;13.15;9.18;;;21.90;99.90;;;;;;6273919;22;20035;-83
2021/07/24 09:39:08;;;;;;;19.48;10.02;;;21.90;99.90;;;;;;6196010;22;20011;-82
2021/07/24 09:41:38;;;;;;;16.63;9.63;;;21.80;99.90;;;;;;6256588;22;20008;-81
2021/07/24 09:44:06;;;;;;;16.77;10.27;;;21.90;99.90;;;;;;6248429;22;20019;-81
2021/07/24 09:46:34;;;;;;;16.05;9.98;;;22.00;99.90;;;;;;6281008;22;20031;-82
2021/07/24 09:49:14;;;;;;;14.75;9.55;;;22.00;99.90;;;;;;6283569;22;20027;-81
2021/07/24 09:51:46;;;;;;;16.40;9.93;;;22.10;99.90;;;;;;6249629;22;20032;-80
2021/07/24 09:54:28;;;;;;;14.52;11.15;;;22.10;99.90;;;;;;6256040;22;20023;-80
2021/07/24 09:56:56;;;;;;;17.48;11.57;;;22.00;99.90;;;;;;6229158;22;20027;-81
2021/07/24 09:59:29;;;;;;;21.92;12.23;;;21.90;99.90;;;;;;6245048;22;20030;-80
2021/07/24 10:02:02;;;;;;;14.15;10.60;;;21.90;99.90;;;;;;6255271;22;20016;-81
2021/07/24 10:04:37;;;;;;;14.95;9.95;;;22.00;99.90;;;;;;6220263;22;20036;-81
2021/07/24 10:07:28;;;;;;;15.27;10.48;;;21.90;99.90;;;;;;6251274;22;20065;-80
2021/07/24 10:09:57;;;;;;;13.80;9.32;;;22.10;99.90;;;;;;6283720;22;20384;-80
2021/07/24 10:12:25;;;;;;;14.38;10.18;;;22.20;99.90;;;;;;6273493;22;20019;-80
2021/07/24 10:14:52;;;;;;;19.00;12.00;;;22.40;99.90;;;;;;6280074;22;20024;-80
2021/07/24 10:17:23;;;;;;;16.33;11.02;;;22.50;99.90;;;;;;6282814;22;20038;-83
2021/07/24 10:19:51;;;;;;;17.02;11.50;;;22.60;99.90;;;;;;6248892;22;20023;-80
2021/07/24 10:22:20;;;;;;;15.65;10.65;;;22.70;99.90;;;;;;6283039;22;20030;-81
2021/07/24 10:24:49;;;;;;;17.27;11.03;;;22.90;99.90;;;;;;6256880;22;20011;-81
2021/07/24 10:27:28;;;;;;;15.90;10.27;;;23.00;99.90;;;;;;6251810;22;20447;-79
2021/07/24 10:30:05;;;;;;;15.95;10.98;;;23.10;99.90;;;;;;6244661;22;20016;-79
2021/07/24 10:32:37;;;;;;;19.73;11.73;;;23.40;99.90;;;;;;6242327;22;20051;-79
2021/07/24 10:35:06;;;;;;;11.10;9.60;;;23.40;99.90;;;;;;6278401;22;20031;-79
2021/07/24 10:37:42;;;;;;;17.48;11.55;;;23.30;99.90;;;;;;6272399;22;20015;-80
2021/07/24 10:40:20;;;;;;;14.48;11.45;;;23.30;99.90;;;;;;6243191;22;20023;-80
2021/07/24 10:42:49;;;;;;;15.10;10.73;;;23.30;99.90;;;;;;6280068;22;20028;-79
2021/07/24 10:45:50;;;;;;;14.40;8.82;;;23.50;99.90;;;;;;6243784;22;20035;-80
2021/07/24 10:48:26;;;;;;;12.57;8.38;;;23.70;99.90;;;;;;6221998;22;20016;-80
2021/07/24 10:50:54;;;;;;;12.65;8.77;;;23.60;99.90;;;;;;6218363;22;20027;-80
2021/07/24 10:53:22;;;;;;;12.55;8.48;;;23.60;99.90;;;;;;6220252;22;20043;-79
2021/07/24 10:55:52;;;;;;;13.18;8.70;;;23.50;99.90;;;;;;6218998;22;20024;-80
2021/07/24 10:58:25;;;;;;;14.00;9.18;;;23.70;99.90;;;;;;6223562;22;20024;-81
2021/07/24 11:00:54;;;;;;;21.50;11.57;;;23.70;99.90;;;;;;6245922;22;20332;-82
2021/07/24 11:03:36;;;;;;;16.23;9.73;;;23.70;99.90;;;;;;6252195;22;20354;-81
2021/07/24 11:06:26;;;;;;;16.08;10.35;;;23.80;99.90;;;;;;6286067;22;20254;-80
2021/07/24 11:09:01;;;;;;;11.00;7.82;;;23.70;99.90;;;;;;6207775;22;20023;-80
2021/07/24 11:11:42;;;;;;;13.05;8.90;;;23.70;99.90;;;;;;6280543;22;20056;-83
2021/07/24 11:14:29;;;;;;;8.38;6.40;;;23.70;99.90;;;;;;6259480;22;20383;-80
2021/07/24 11:17:07;;;;;;;15.30;7.78;;;23.70;99.90;;;;;;6230437;22;20023;-85
2021/07/24 11:19:40;;;;;;;18.90;9.65;;;23.70;99.90;;;;;;6221099;22;20027;-85
2021/07/24 11:22:17;;;;;;;10.57;9.43;;;23.70;99.90;;;;;;6256480;22;20470;-87
2021/07/24 11:25:02;;;;;;;15.90;8.48;;;23.80;99.90;;;;;;6195714;22;20439;-86
2021/07/24 11:27:36;;;;;;;12.85;9.00;;;23.70;99.90;;;;;;6198381;22;20027;-83
2021/07/24 11:30:04;;;;;;;10.25;8.02;;;23.80;99.90;;;;;;6284796;22;20012;-86
2021/07/24 11:32:41;;;;;;;20.33;10.30;;;24.00;99.90;;;;;;6247206;22;20375;-89
2021/07/24 11:35:11;;;;;;;14.52;9.93;;;24.00;99.90;;;;;;6222131;22;20326;-84
2021/07/24 11:37:40;;;;;;;10.05;7.63;;;24.10;99.90;;;;;;6197247;22;20327;-84
2021/07/24 11:40:13;;;;;;;14.45;9.05;;;24.10;99.90;;;;;;6276490;22;20023;-89
2021/07/24 11:42:43;;;;;;;19.08;9.27;;;24.10;99.90;;;;;;6281906;22;20024;-86
2021/07/24 11:45:21;;;;;;;16.13;8.55;;;23.90;99.90;;;;;;6231795;22;20023;-87
2021/07/24 11:48:04;;;;;;;13.93;10.32;;;23.90;99.90;;;;;;6245807;22;20024;-85
2021/07/24 11:50:31;;;;;;;15.77;10.10;;;24.10;99.90;;;;;;6221336;22;20015;-82
2021/07/24 11:53:01;;;;;;;13.50;7.90;;;24.30;99.90;;;;;;6221799;22;20451;-78
2021/07/24 11:55:36;;;;;;;18.08;8.20;;;24.40;99.90;;;;;;6278969;22;20023;-79
2021/07/24 11:58:06;;;;;;;13.55;9.40;;;24.40;99.90;;;;;;6250472;22;20423;-80
2021/07/24 12:00:36;;;;;;;13.15;8.73;;;24.60;99.90;;;;;;6245983;22;20035;-79
2021/07/24 12:03:19;;;;;;;12.05;7.95;;;24.50;99.90;;;;;;6279233;22;20012;-81
2021/07/24 12:05:49;;;;;;;10.15;7.70;;;24.60;99.90;;;;;;6284841;22;20015;-80
2021/07/24 12:08:23;;;;;;;11.73;8.18;;;24.70;99.90;;;;;;6220984;22;20027;-80
2021/07/24 12:10:52;;;;;;;15.30;8.90;;;24.80;99.90;;;;;;6281133;22;20027;-80
2021/07/24 12:13:23;;;;;;;14.45;9.35;;;24.80;99.90;;;;;;6284362;22;20438;-80
2021/07/24 12:16:07;;;;;;;11.52;8.95;;;24.90;99.90;;;;;;6249846;22;20020;-83
2021/07/24 12:18:37;;;;;;;14.75;8.82;;;25.20;99.90;;;;;;6220926;22;20023;-83
2021/07/24 12:21:18;;;;;;;17.52;9.73;;;25.20;99.90;;;;;;6257966;22;20016;-79
2021/07/24 12:23:56;;;;;;;11.15;8.45;;;25.30;99.90;;;;;;6278111;22;20031;-83
2021/07/24 12:26:31;;;;;;;13.27;9.20;;;25.20;99.90;;;;;;6255721;22;20016;-81
2021/07/24 12:29:09;;;;;;;13.27;8.63;;;25.00;99.90;;;;;;6247061;22;20016;-85
2021/07/24 12:31:53;;;;;;;11.70;9.77;;;24.70;99.90;;;;;;6249207;22;20347;-80
2021/07/24 12:34:25;;;;;;;16.13;8.60;;;24.60;99.90;;;;;;6283398;22;20430;-78
2021/07/24 12:36:57;;;;;;;15.75;10.40;;;24.60;99.90;;;;;;6284598;22;20015;-80
2021/07/24 12:39:30;;;;;;;11.23;9.15;;;24.60;99.90;;;;;;6279519;22;20015;-80
2021/07/24 12:42:00;;;;;;;14.23;9.55;;;24.50;99.90;;;;;;6284168;22;20016;-85
2021/07/24 12:44:29;;;;;;;12.23;8.93;;;24.40;99.90;;;;;;6274199;22;20027;-85
2021/07/24 12:47:13;;;;;;;11.57;9.70;;;24.40;99.90;;;;;;6252532;22;20019;-84
2021/07/24 12:49:47;;;;;;;21.70;9.25;;;24.70;99.90;;;;;;6246236;22;20037;-83
2021/07/24 12:52:26;;;;;;;12.55;7.97;;;25.10;99.90;;;;;;6246041;22;20027;-84
2021/07/24 12:55:15;;;;;;;;;;;;;;;;;;;;;
2021/07/24 12:58:27;;;;;;;16.90;8.90;;;25.50;99.90;;;;;;6236807;22;20042;-83
2021/07/24 13:01:16;;;;;;;15.52;10.63;;;25.50;99.90;;;;;;6258015;22;20020;-88